sensor_id;sensor_type;location;lat;lon;timestamp;P1;durP1;ratioP1;P2;durP2;ratioP2
4909;SDS011;2470;49.868;8.660;2023-07-02T00:00:44;1.52;;;1.33;;
4909;SDS011;2470;49.868;8.660;2023-07-02T00:03:10;4.10;;;1.63;;
4909;SDS011;2470;49.868;8.660;2023-07-02T00:05:35;1.58;;;1.27;;
4909;SDS011;2470;49.868;8.660;2023-07-02T00:08:02;3.35;;;1.80;;
4909;SDS011;2470;49.868;8.660;2023-07-02T00:10:27;1.60;;;1.20;;
4909;SDS011;2470;49.868;8.660;2023-07-02T00:12:53;1.77;;;1.52;;
4909;SDS011;2470;49.868;8.660;2023-07-02T00:15:18;1.52;;;1.42;;
4909;SDS011;2470;49.868;8.660;2023-07-02T00:17:44;1.70;;;1.60;;
4909;SDS011;2470;49.868;8.660;2023-07-02T00:20:09;2.35;;;1.38;;
4909;SDS011;2470;49.868;8.660;2023-07-02T00:22:40;1.50;;;1.40;;
4909;SDS011;2470;49.868;8.660;2023-07-02T00:25:09;1.63;;;1.52;;
4909;SDS011;2470;49.868;8.660;2023-07-02T00:27:35;2.38;;;1.88;;
4909;SDS011;2470;49.868;8.660;2023-07-02T00:30:00;1.92;;;1.50;;
4909;SDS011;2470;49.868;8.660;2023-07-02T00:32:26;7.90;;;1.70;;
4909;SDS011;2470;49.868;8.660;2023-07-02T00:34:51;1.33;;;1.23;;
4909;SDS011;2470;49.868;8.660;2023-07-02T00:37:17;1.90;;;1.77;;
4909;SDS011;2470;49.868;8.660;2023-07-02T00:39:42;1.75;;;1.45;;
4909;SDS011;2470;49.868;8.660;2023-07-02T00:42:08;1.40;;;1.30;;
4909;SDS011;2470;49.868;8.660;2023-07-02T00:44:36;2.55;;;1.65;;
4909;SDS011;2470;49.868;8.660;2023-07-02T00:47:06;2.72;;;1.75;;
4909;SDS011;2470;49.868;8.660;2023-07-02T00:49:33;1.48;;;1.30;;
4909;SDS011;2470;49.868;8.660;2023-07-02T00:51:58;2.60;;;1.30;;
4909;SDS011;2470;49.868;8.660;2023-07-02T00:54:24;2.00;;;1.50;;
4909;SDS011;2470;49.868;8.660;2023-07-02T00:56:53;4.95;;;1.42;;
4909;SDS011;2470;49.868;8.660;2023-07-02T00:59:19;1.80;;;1.20;;
4909;SDS011;2470;49.868;8.660;2023-07-02T01:01:45;1.55;;;1.23;;
4909;SDS011;2470;49.868;8.660;2023-07-02T01:04:16;2.25;;;1.40;;
4909;SDS011;2470;49.868;8.660;2023-07-02T01:06:42;1.75;;;1.55;;
4909;SDS011;2470;49.868;8.660;2023-07-02T01:09:09;2.60;;;1.80;;
4909;SDS011;2470;49.868;8.660;2023-07-02T01:11:49;3.08;;;1.60;;
4909;SDS011;2470;49.868;8.660;2023-07-02T01:14:19;7.30;;;1.60;;
4909;SDS011;2470;49.868;8.660;2023-07-02T01:16:59;3.55;;;1.77;;
4909;SDS011;2470;49.868;8.660;2023-07-02T01:22:09;7.63;;;1.45;;
4909;SDS011;2470;49.868;8.660;2023-07-02T01:24:35;1.50;;;1.40;;
4909;SDS011;2470;49.868;8.660;2023-07-02T01:27:03;1.70;;;1.45;;
4909;SDS011;2470;49.868;8.660;2023-07-02T01:29:29;1.85;;;1.52;;
4909;SDS011;2470;49.868;8.660;2023-07-02T01:31:56;3.10;;;1.60;;
4909;SDS011;2470;49.868;8.660;2023-07-02T01:34:22;5.47;;;1.63;;
4909;SDS011;2470;49.868;8.660;2023-07-02T01:36:48;2.13;;;1.75;;
4909;SDS011;2470;49.868;8.660;2023-07-02T01:39:14;1.60;;;1.42;;
4909;SDS011;2470;49.868;8.660;2023-07-02T01:44:16;2.90;;;1.55;;
4909;SDS011;2470;49.868;8.660;2023-07-02T01:46:42;2.30;;;1.75;;
4909;SDS011;2470;49.868;8.660;2023-07-02T01:49:08;5.43;;;1.90;;
4909;SDS011;2470;49.868;8.660;2023-07-02T01:51:33;2.65;;;1.60;;
4909;SDS011;2470;49.868;8.660;2023-07-02T01:53:59;2.13;;;1.23;;
4909;SDS011;2470;49.868;8.660;2023-07-02T01:56:25;2.75;;;1.65;;
4909;SDS011;2470;49.868;8.660;2023-07-02T01:58:51;1.73;;;1.63;;
4909;SDS011;2470;49.868;8.660;2023-07-02T02:01:17;1.50;;;1.40;;
4909;SDS011;2470;49.868;8.660;2023-07-02T02:03:43;2.72;;;1.88;;
4909;SDS011;2470;49.868;8.660;2023-07-02T02:06:08;2.88;;;1.70;;
4909;SDS011;2470;49.868;8.660;2023-07-02T02:08:34;2.85;;;1.73;;
4909;SDS011;2470;49.868;8.660;2023-07-02T02:10:59;1.48;;;1.38;;
4909;SDS011;2470;49.868;8.660;2023-07-02T02:13:25;5.10;;;1.77;;
4909;SDS011;2470;49.868;8.660;2023-07-02T02:15:51;1.83;;;1.70;;
4909;SDS011;2470;49.868;8.660;2023-07-02T02:18:16;2.53;;;1.45;;
4909;SDS011;2470;49.868;8.660;2023-07-02T02:20:42;2.67;;;1.48;;
4909;SDS011;2470;49.868;8.660;2023-07-02T02:23:07;2.47;;;1.80;;
4909;SDS011;2470;49.868;8.660;2023-07-02T02:25:33;3.15;;;1.50;;
4909;SDS011;2470;49.868;8.660;2023-07-02T02:27:58;3.40;;;1.95;;
4909;SDS011;2470;49.868;8.660;2023-07-02T02:30:24;3.80;;;1.92;;
4909;SDS011;2470;49.868;8.660;2023-07-02T02:32:49;5.00;;;2.10;;
4909;SDS011;2470;49.868;8.660;2023-07-02T02:35:15;2.58;;;1.95;;
4909;SDS011;2470;49.868;8.660;2023-07-02T02:37:40;2.55;;;1.95;;
4909;SDS011;2470;49.868;8.660;2023-07-02T02:40:07;3.05;;;2.50;;
4909;SDS011;2470;49.868;8.660;2023-07-02T02:42:34;2.63;;;1.67;;
4909;SDS011;2470;49.868;8.660;2023-07-02T02:45:00;5.47;;;2.63;;
4909;SDS011;2470;49.868;8.660;2023-07-02T02:47:26;6.55;;;3.08;;
4909;SDS011;2470;49.868;8.660;2023-07-02T02:49:51;6.80;;;2.85;;
4909;SDS011;2470;49.868;8.660;2023-07-02T02:52:17;4.30;;;2.42;;
4909;SDS011;2470;49.868;8.660;2023-07-02T02:54:43;5.03;;;2.30;;
4909;SDS011;2470;49.868;8.660;2023-07-02T02:57:08;11.98;;;3.03;;
4909;SDS011;2470;49.868;8.660;2023-07-02T02:59:34;3.35;;;2.08;;
4909;SDS011;2470;49.868;8.660;2023-07-02T03:02:00;4.18;;;2.10;;
4909;SDS011;2470;49.868;8.660;2023-07-02T03:04:25;2.88;;;2.10;;
4909;SDS011;2470;49.868;8.660;2023-07-02T03:06:51;6.07;;;2.83;;
4909;SDS011;2470;49.868;8.660;2023-07-02T03:09:21;6.75;;;3.13;;
4909;SDS011;2470;49.868;8.660;2023-07-02T03:11:46;8.32;;;2.58;;
4909;SDS011;2470;49.868;8.660;2023-07-02T03:14:12;7.18;;;2.72;;
4909;SDS011;2470;49.868;8.660;2023-07-02T03:16:39;5.70;;;3.08;;
4909;SDS011;2470;49.868;8.660;2023-07-02T03:19:05;2.60;;;2.33;;
4909;SDS011;2470;49.868;8.660;2023-07-02T03:21:31;3.72;;;2.40;;
4909;SDS011;2470;49.868;8.660;2023-07-02T03:23:57;4.18;;;3.25;;
4909;SDS011;2470;49.868;8.660;2023-07-02T03:26:22;7.72;;;2.75;;
4909;SDS011;2470;49.868;8.660;2023-07-02T03:28:49;3.47;;;2.25;;
4909;SDS011;2470;49.868;8.660;2023-07-02T03:31:14;4.07;;;2.63;;
4909;SDS011;2470;49.868;8.660;2023-07-02T03:33:40;4.80;;;2.70;;
4909;SDS011;2470;49.868;8.660;2023-07-02T03:36:05;3.70;;;2.50;;
4909;SDS011;2470;49.868;8.660;2023-07-02T03:38:31;5.85;;;2.83;;
4909;SDS011;2470;49.868;8.660;2023-07-02T03:40:57;8.07;;;2.65;;
4909;SDS011;2470;49.868;8.660;2023-07-02T03:43:22;4.18;;;2.70;;
4909;SDS011;2470;49.868;8.660;2023-07-02T03:45:49;6.63;;;2.58;;
4909;SDS011;2470;49.868;8.660;2023-07-02T03:48:16;8.15;;;2.80;;
4909;SDS011;2470;49.868;8.660;2023-07-02T03:50:41;5.53;;;2.97;;
4909;SDS011;2470;49.868;8.660;2023-07-02T03:53:07;4.85;;;2.55;;
4909;SDS011;2470;49.868;8.660;2023-07-02T03:55:33;3.38;;;2.17;;
4909;SDS011;2470;49.868;8.660;2023-07-02T03:57:58;5.43;;;3.33;;
4909;SDS011;2470;49.868;8.660;2023-07-02T04:00:23;5.38;;;3.15;;
4909;SDS011;2470;49.868;8.660;2023-07-02T04:02:49;5.65;;;2.55;;
4909;SDS011;2470;49.868;8.660;2023-07-02T04:05:14;7.50;;;2.67;;
4909;SDS011;2470;49.868;8.660;2023-07-02T04:07:41;3.40;;;2.17;;
4909;SDS011;2470;49.868;8.660;2023-07-02T04:10:06;5.43;;;2.92;;
4909;SDS011;2470;49.868;8.660;2023-07-02T04:12:32;9.18;;;2.78;;
4909;SDS011;2470;49.868;8.660;2023-07-02T04:14:58;4.45;;;2.78;;
4909;SDS011;2470;49.868;8.660;2023-07-02T04:17:23;4.15;;;2.85;;
4909;SDS011;2470;49.868;8.660;2023-07-02T04:19:49;6.30;;;2.33;;
4909;SDS011;2470;49.868;8.660;2023-07-02T04:22:14;6.65;;;3.25;;
4909;SDS011;2470;49.868;8.660;2023-07-02T04:24:40;5.32;;;2.83;;
4909;SDS011;2470;49.868;8.660;2023-07-02T04:27:06;5.13;;;3.08;;
4909;SDS011;2470;49.868;8.660;2023-07-02T04:29:31;4.20;;;2.58;;
4909;SDS011;2470;49.868;8.660;2023-07-02T04:31:57;7.90;;;3.08;;
4909;SDS011;2470;49.868;8.660;2023-07-02T04:34:22;5.38;;;2.28;;
4909;SDS011;2470;49.868;8.660;2023-07-02T04:36:48;6.30;;;2.92;;
4909;SDS011;2470;49.868;8.660;2023-07-02T04:39:13;5.95;;;2.42;;
4909;SDS011;2470;49.868;8.660;2023-07-02T04:41:39;3.92;;;2.58;;
4909;SDS011;2470;49.868;8.660;2023-07-02T04:44:04;16.80;;;2.70;;
4909;SDS011;2470;49.868;8.660;2023-07-02T04:46:30;4.15;;;2.78;;
4909;SDS011;2470;49.868;8.660;2023-07-02T04:48:55;6.15;;;2.55;;
4909;SDS011;2470;49.868;8.660;2023-07-02T04:51:21;6.75;;;3.03;;
4909;SDS011;2470;49.868;8.660;2023-07-02T04:53:46;4.72;;;3.03;;
4909;SDS011;2470;49.868;8.660;2023-07-02T04:56:12;12.00;;;3.25;;
4909;SDS011;2470;49.868;8.660;2023-07-02T04:58:37;5.88;;;2.80;;
4909;SDS011;2470;49.868;8.660;2023-07-02T05:01:03;10.52;;;2.78;;
4909;SDS011;2470;49.868;8.660;2023-07-02T05:03:29;4.32;;;2.67;;
4909;SDS011;2470;49.868;8.660;2023-07-02T05:05:55;7.63;;;2.90;;
4909;SDS011;2470;49.868;8.660;2023-07-02T05:08:21;5.72;;;3.13;;
4909;SDS011;2470;49.868;8.660;2023-07-02T05:10:46;5.00;;;2.45;;
4909;SDS011;2470;49.868;8.660;2023-07-02T05:13:12;6.20;;;2.50;;
4909;SDS011;2470;49.868;8.660;2023-07-02T05:15:37;8.43;;;2.97;;
4909;SDS011;2470;49.868;8.660;2023-07-02T05:18:03;13.57;;;3.10;;
4909;SDS011;2470;49.868;8.660;2023-07-02T05:20:28;7.22;;;3.33;;
4909;SDS011;2470;49.868;8.660;2023-07-02T05:22:54;7.18;;;3.55;;
4909;SDS011;2470;49.868;8.660;2023-07-02T05:25:19;4.05;;;2.70;;
4909;SDS011;2470;49.868;8.660;2023-07-02T05:27:45;7.90;;;3.38;;
4909;SDS011;2470;49.868;8.660;2023-07-02T05:30:10;5.68;;;3.00;;
4909;SDS011;2470;49.868;8.660;2023-07-02T05:32:36;12.23;;;3.22;;
4909;SDS011;2470;49.868;8.660;2023-07-02T05:35:04;8.45;;;3.42;;
4909;SDS011;2470;49.868;8.660;2023-07-02T05:37:30;3.83;;;2.78;;
4909;SDS011;2470;49.868;8.660;2023-07-02T05:39:55;8.48;;;3.33;;
4909;SDS011;2470;49.868;8.660;2023-07-02T05:42:21;7.13;;;3.05;;
4909;SDS011;2470;49.868;8.660;2023-07-02T05:44:46;5.32;;;3.65;;
4909;SDS011;2470;49.868;8.660;2023-07-02T05:47:11;7.00;;;4.22;;
4909;SDS011;2470;49.868;8.660;2023-07-02T05:49:37;5.47;;;3.13;;
4909;SDS011;2470;49.868;8.660;2023-07-02T05:52:03;7.47;;;3.35;;
4909;SDS011;2470;49.868;8.660;2023-07-02T05:54:28;8.45;;;4.18;;
4909;SDS011;2470;49.868;8.660;2023-07-02T05:56:57;6.80;;;3.67;;
4909;SDS011;2470;49.868;8.660;2023-07-02T05:59:22;12.63;;;4.30;;
4909;SDS011;2470;49.868;8.660;2023-07-02T06:01:48;5.80;;;3.42;;
4909;SDS011;2470;49.868;8.660;2023-07-02T06:04:13;9.90;;;4.32;;
4909;SDS011;2470;49.868;8.660;2023-07-02T06:06:39;9.82;;;3.20;;
4909;SDS011;2470;49.868;8.660;2023-07-02T06:09:04;8.38;;;3.90;;
4909;SDS011;2470;49.868;8.660;2023-07-02T06:11:30;10.70;;;3.53;;
4909;SDS011;2470;49.868;8.660;2023-07-02T06:13:55;5.75;;;3.15;;
4909;SDS011;2470;49.868;8.660;2023-07-02T06:16:21;5.05;;;3.28;;
4909;SDS011;2470;49.868;8.660;2023-07-02T06:18:46;7.47;;;4.13;;
4909;SDS011;2470;49.868;8.660;2023-07-02T06:21:12;8.07;;;3.67;;
4909;SDS011;2470;49.868;8.660;2023-07-02T06:23:43;8.60;;;4.43;;
4909;SDS011;2470;49.868;8.660;2023-07-02T06:26:09;8.75;;;3.70;;
4909;SDS011;2470;49.868;8.660;2023-07-02T06:28:36;7.30;;;3.88;;
4909;SDS011;2470;49.868;8.660;2023-07-02T06:31:03;17.45;;;4.60;;
4909;SDS011;2470;49.868;8.660;2023-07-02T06:33:29;15.65;;;3.72;;
4909;SDS011;2470;49.868;8.660;2023-07-02T06:35:54;6.40;;;3.60;;
4909;SDS011;2470;49.868;8.660;2023-07-02T06:38:20;11.55;;;5.05;;
4909;SDS011;2470;49.868;8.660;2023-07-02T06:40:45;7.97;;;3.60;;
4909;SDS011;2470;49.868;8.660;2023-07-02T06:43:11;14.50;;;5.22;;
4909;SDS011;2470;49.868;8.660;2023-07-02T06:45:36;8.15;;;4.30;;
4909;SDS011;2470;49.868;8.660;2023-07-02T06:48:02;7.68;;;4.45;;
4909;SDS011;2470;49.868;8.660;2023-07-02T06:50:28;9.20;;;4.82;;
4909;SDS011;2470;49.868;8.660;2023-07-02T06:52:53;9.35;;;4.80;;
4909;SDS011;2470;49.868;8.660;2023-07-02T06:55:19;9.70;;;5.05;;
4909;SDS011;2470;49.868;8.660;2023-07-02T06:57:44;11.68;;;4.95;;
4909;SDS011;2470;49.868;8.660;2023-07-02T07:00:11;12.55;;;5.60;;
4909;SDS011;2470;49.868;8.660;2023-07-02T07:02:37;9.48;;;4.60;;
4909;SDS011;2470;49.868;8.660;2023-07-02T07:05:03;9.15;;;4.82;;
4909;SDS011;2470;49.868;8.660;2023-07-02T07:07:29;6.30;;;3.97;;
4909;SDS011;2470;49.868;8.660;2023-07-02T07:09:55;7.80;;;4.05;;
4909;SDS011;2470;49.868;8.660;2023-07-02T07:12:20;8.93;;;4.25;;
4909;SDS011;2470;49.868;8.660;2023-07-02T07:14:46;11.60;;;4.50;;
4909;SDS011;2470;49.868;8.660;2023-07-02T07:17:11;10.38;;;4.90;;
4909;SDS011;2470;49.868;8.660;2023-07-02T07:19:37;8.00;;;4.30;;
4909;SDS011;2470;49.868;8.660;2023-07-02T07:22:02;10.48;;;5.05;;
4909;SDS011;2470;49.868;8.660;2023-07-02T07:24:28;10.45;;;4.80;;
4909;SDS011;2470;49.868;8.660;2023-07-02T07:26:54;13.15;;;5.63;;
4909;SDS011;2470;49.868;8.660;2023-07-02T07:29:19;10.88;;;4.50;;
4909;SDS011;2470;49.868;8.660;2023-07-02T07:31:45;9.48;;;4.40;;
4909;SDS011;2470;49.868;8.660;2023-07-02T07:34:11;8.00;;;4.80;;
4909;SDS011;2470;49.868;8.660;2023-07-02T07:36:36;10.20;;;5.72;;
4909;SDS011;2470;49.868;8.660;2023-07-02T07:39:02;8.40;;;4.25;;
4909;SDS011;2470;49.868;8.660;2023-07-02T07:41:28;9.48;;;4.85;;
4909;SDS011;2470;49.868;8.660;2023-07-02T07:43:53;9.88;;;4.03;;
4909;SDS011;2470;49.868;8.660;2023-07-02T07:46:19;9.48;;;4.82;;
4909;SDS011;2470;49.868;8.660;2023-07-02T07:48:44;8.73;;;4.07;;
4909;SDS011;2470;49.868;8.660;2023-07-02T07:51:10;12.50;;;5.55;;
4909;SDS011;2470;49.868;8.660;2023-07-02T07:53:37;12.32;;;4.78;;
4909;SDS011;2470;49.868;8.660;2023-07-02T07:56:04;17.80;;;4.68;;
4909;SDS011;2470;49.868;8.660;2023-07-02T07:58:30;10.88;;;5.15;;
4909;SDS011;2470;49.868;8.660;2023-07-02T08:00:57;8.00;;;3.58;;
4909;SDS011;2470;49.868;8.660;2023-07-02T08:03:22;10.82;;;5.95;;
4909;SDS011;2470;49.868;8.660;2023-07-02T08:05:48;10.82;;;6.65;;
4909;SDS011;2470;49.868;8.660;2023-07-02T08:08:13;13.25;;;5.55;;
4909;SDS011;2470;49.868;8.660;2023-07-02T08:10:39;12.55;;;5.90;;
4909;SDS011;2470;49.868;8.660;2023-07-02T08:13:05;14.32;;;5.35;;
4909;SDS011;2470;49.868;8.660;2023-07-02T08:15:30;7.75;;;4.82;;
4909;SDS011;2470;49.868;8.660;2023-07-02T08:17:56;15.65;;;5.93;;
4909;SDS011;2470;49.868;8.660;2023-07-02T08:20:23;7.85;;;4.70;;
4909;SDS011;2470;49.868;8.660;2023-07-02T08:22:49;9.48;;;5.22;;
4909;SDS011;2470;49.868;8.660;2023-07-02T08:25:16;10.10;;;4.70;;
4909;SDS011;2470;49.868;8.660;2023-07-02T08:27:42;9.45;;;4.63;;
4909;SDS011;2470;49.868;8.660;2023-07-02T08:30:08;8.73;;;4.38;;
4909;SDS011;2470;49.868;8.660;2023-07-02T08:32:34;13.02;;;5.97;;
4909;SDS011;2470;49.868;8.660;2023-07-02T08:35:00;8.95;;;5.05;;
4909;SDS011;2470;49.868;8.660;2023-07-02T08:37:26;8.90;;;4.90;;
4909;SDS011;2470;49.868;8.660;2023-07-02T08:39:51;9.85;;;4.65;;
4909;SDS011;2470;49.868;8.660;2023-07-02T08:42:17;11.02;;;5.55;;
4909;SDS011;2470;49.868;8.660;2023-07-02T08:44:45;10.27;;;4.47;;
4909;SDS011;2470;49.868;8.660;2023-07-02T08:47:12;11.02;;;4.65;;
4909;SDS011;2470;49.868;8.660;2023-07-02T08:49:38;11.07;;;4.57;;
4909;SDS011;2470;49.868;8.660;2023-07-02T08:52:03;8.30;;;4.22;;
4909;SDS011;2470;49.868;8.660;2023-07-02T08:54:29;10.38;;;5.57;;
4909;SDS011;2470;49.868;8.660;2023-07-02T08:56:55;10.48;;;4.40;;
4909;SDS011;2470;49.868;8.660;2023-07-02T08:59:21;11.18;;;5.28;;
4909;SDS011;2470;49.868;8.660;2023-07-02T09:01:47;9.23;;;4.72;;
4909;SDS011;2470;49.868;8.660;2023-07-02T09:04:17;12.32;;;5.03;;
4909;SDS011;2470;49.868;8.660;2023-07-02T09:06:44;12.68;;;4.25;;
4909;SDS011;2470;49.868;8.660;2023-07-02T09:09:10;7.70;;;4.30;;
4909;SDS011;2470;49.868;8.660;2023-07-02T09:11:35;8.98;;;4.45;;
4909;SDS011;2470;49.868;8.660;2023-07-02T09:14:23;9.40;;;4.10;;
4909;SDS011;2470;49.868;8.660;2023-07-02T09:16:49;11.25;;;4.60;;
4909;SDS011;2470;49.868;8.660;2023-07-02T09:19:14;7.93;;;3.75;;
4909;SDS011;2470;49.868;8.660;2023-07-02T09:21:46;10.35;;;4.40;;
4909;SDS011;2470;49.868;8.660;2023-07-02T09:24:14;8.10;;;4.03;;
4909;SDS011;2470;49.868;8.660;2023-07-02T09:26:44;7.43;;;4.22;;
4909;SDS011;2470;49.868;8.660;2023-07-02T09:29:11;8.57;;;3.85;;
4909;SDS011;2470;49.868;8.660;2023-07-02T09:31:46;17.98;;;4.38;;
4909;SDS011;2470;49.868;8.660;2023-07-02T09:34:12;9.32;;;4.47;;
4909;SDS011;2470;49.868;8.660;2023-07-02T09:36:38;9.18;;;4.40;;
4909;SDS011;2470;49.868;8.660;2023-07-02T09:39:28;7.97;;;4.32;;
4909;SDS011;2470;49.868;8.660;2023-07-02T09:41:57;11.25;;;4.60;;
4909;SDS011;2470;49.868;8.660;2023-07-02T09:44:25;8.80;;;4.70;;
4909;SDS011;2470;49.868;8.660;2023-07-02T09:49:26;8.68;;;4.22;;
4909;SDS011;2470;49.868;8.660;2023-07-02T09:51:56;7.50;;;4.35;;
4909;SDS011;2470;49.868;8.660;2023-07-02T09:54:23;10.40;;;4.70;;
4909;SDS011;2470;49.868;8.660;2023-07-02T09:56:48;12.27;;;4.82;;
4909;SDS011;2470;49.868;8.660;2023-07-02T09:59:14;9.55;;;5.38;;
4909;SDS011;2470;49.868;8.660;2023-07-02T10:01:40;10.65;;;5.10;;
4909;SDS011;2470;49.868;8.660;2023-07-02T10:04:12;9.68;;;4.82;;
4909;SDS011;2470;49.868;8.660;2023-07-02T10:06:47;9.77;;;4.97;;
4909;SDS011;2470;49.868;8.660;2023-07-02T10:09:13;10.88;;;5.35;;
4909;SDS011;2470;49.868;8.660;2023-07-02T10:11:39;7.00;;;4.82;;
4909;SDS011;2470;49.868;8.660;2023-07-02T10:14:04;10.38;;;4.22;;
4909;SDS011;2470;49.868;8.660;2023-07-02T10:16:30;13.85;;;4.93;;
4909;SDS011;2470;49.868;8.660;2023-07-02T10:19:12;10.98;;;6.13;;
4909;SDS011;2470;49.868;8.660;2023-07-02T10:22:00;13.23;;;6.22;;
4909;SDS011;2470;49.868;8.660;2023-07-02T10:24:29;13.48;;;5.32;;
4909;SDS011;2470;49.868;8.660;2023-07-02T10:26:56;11.20;;;5.43;;
4909;SDS011;2470;49.868;8.660;2023-07-02T10:29:23;9.32;;;5.03;;
4909;SDS011;2470;49.868;8.660;2023-07-02T10:31:53;8.70;;;4.53;;
4909;SDS011;2470;49.868;8.660;2023-07-02T10:34:33;10.55;;;5.25;;
4909;SDS011;2470;49.868;8.660;2023-07-02T10:37:02;12.05;;;5.57;;
4909;SDS011;2470;49.868;8.660;2023-07-02T10:39:31;13.35;;;5.93;;
4909;SDS011;2470;49.868;8.660;2023-07-02T10:42:04;10.23;;;5.38;;
4909;SDS011;2470;49.868;8.660;2023-07-02T10:44:33;15.68;;;6.75;;
4909;SDS011;2470;49.868;8.660;2023-07-02T10:46:59;12.05;;;5.13;;
4909;SDS011;2470;49.868;8.660;2023-07-02T10:49:31;13.95;;;5.85;;
4909;SDS011;2470;49.868;8.660;2023-07-02T10:51:58;11.43;;;5.45;;
4909;SDS011;2470;49.868;8.660;2023-07-02T10:54:24;11.50;;;5.43;;
4909;SDS011;2470;49.868;8.660;2023-07-02T10:56:50;13.02;;;5.90;;
4909;SDS011;2470;49.868;8.660;2023-07-02T10:59:27;11.65;;;6.28;;
4909;SDS011;2470;49.868;8.660;2023-07-02T11:01:52;17.05;;;6.55;;
4909;SDS011;2470;49.868;8.660;2023-07-02T11:04:18;10.38;;;5.93;;
4909;SDS011;2470;49.868;8.660;2023-07-02T11:06:43;14.63;;;6.80;;
4909;SDS011;2470;49.868;8.660;2023-07-02T11:09:15;14.48;;;6.30;;
4909;SDS011;2470;49.868;8.660;2023-07-02T11:11:52;11.57;;;5.43;;
4909;SDS011;2470;49.868;8.660;2023-07-02T11:14:26;14.18;;;5.88;;
4909;SDS011;2470;49.868;8.660;2023-07-02T11:16:56;16.70;;;6.82;;
4909;SDS011;2470;49.868;8.660;2023-07-02T11:19:23;10.30;;;5.68;;
4909;SDS011;2470;49.868;8.660;2023-07-02T11:21:52;12.02;;;5.72;;
4909;SDS011;2470;49.868;8.660;2023-07-02T11:24:32;11.43;;;5.68;;
4909;SDS011;2470;49.868;8.660;2023-07-02T11:26:59;11.30;;;5.72;;
4909;SDS011;2470;49.868;8.660;2023-07-02T11:29:28;11.18;;;6.35;;
4909;SDS011;2470;49.868;8.660;2023-07-02T11:31:55;12.13;;;5.95;;
4909;SDS011;2470;49.868;8.660;2023-07-02T11:34:39;11.07;;;6.00;;
4909;SDS011;2470;49.868;8.660;2023-07-02T11:37:05;11.02;;;6.05;;
4909;SDS011;2470;49.868;8.660;2023-07-02T11:39:31;17.27;;;5.82;;
4909;SDS011;2470;49.868;8.660;2023-07-02T11:41:57;15.13;;;6.10;;
4909;SDS011;2470;49.868;8.660;2023-07-02T11:44:23;9.18;;;5.43;;
4909;SDS011;2470;49.868;8.660;2023-07-02T11:46:52;13.90;;;5.82;;
4909;SDS011;2470;49.868;8.660;2023-07-02T11:49:17;13.35;;;5.88;;
4909;SDS011;2470;49.868;8.660;2023-07-02T11:51:43;13.98;;;6.00;;
4909;SDS011;2470;49.868;8.660;2023-07-02T11:54:13;15.45;;;6.38;;
4909;SDS011;2470;49.868;8.660;2023-07-02T11:56:39;12.10;;;6.32;;
4909;SDS011;2470;49.868;8.660;2023-07-02T11:59:07;12.02;;;5.43;;
4909;SDS011;2470;49.868;8.660;2023-07-02T12:01:32;9.88;;;5.43;;
4909;SDS011;2470;49.868;8.660;2023-07-02T12:03:58;9.48;;;5.60;;
4909;SDS011;2470;49.868;8.660;2023-07-02T12:06:24;13.98;;;6.60;;
4909;SDS011;2470;49.868;8.660;2023-07-02T12:08:49;11.85;;;5.70;;
4909;SDS011;2470;49.868;8.660;2023-07-02T12:11:14;14.25;;;6.97;;
4909;SDS011;2470;49.868;8.660;2023-07-02T12:13:40;15.10;;;7.35;;
4909;SDS011;2470;49.868;8.660;2023-07-02T12:16:06;13.40;;;7.45;;
4909;SDS011;2470;49.868;8.660;2023-07-02T12:18:32;15.73;;;6.63;;
4909;SDS011;2470;49.868;8.660;2023-07-02T12:20:57;10.63;;;4.90;;
4909;SDS011;2470;49.868;8.660;2023-07-02T12:23:23;12.10;;;6.30;;
4909;SDS011;2470;49.868;8.660;2023-07-02T12:25:48;12.02;;;6.53;;
4909;SDS011;2470;49.868;8.660;2023-07-02T12:28:14;15.65;;;6.85;;
4909;SDS011;2470;49.868;8.660;2023-07-02T12:30:39;15.23;;;6.80;;
4909;SDS011;2470;49.868;8.660;2023-07-02T12:33:05;18.77;;;7.57;;
4909;SDS011;2470;49.868;8.660;2023-07-02T12:35:30;12.43;;;7.20;;
4909;SDS011;2470;49.868;8.660;2023-07-02T12:37:56;19.98;;;7.05;;
4909;SDS011;2470;49.868;8.660;2023-07-02T12:40:22;12.85;;;6.65;;
4909;SDS011;2470;49.868;8.660;2023-07-02T12:42:47;17.55;;;8.63;;
4909;SDS011;2470;49.868;8.660;2023-07-02T12:45:15;15.93;;;6.10;;
4909;SDS011;2470;49.868;8.660;2023-07-02T12:47:41;9.63;;;6.13;;
4909;SDS011;2470;49.868;8.660;2023-07-02T12:50:07;12.35;;;6.63;;
4909;SDS011;2470;49.868;8.660;2023-07-02T12:52:33;13.85;;;7.05;;
4909;SDS011;2470;49.868;8.660;2023-07-02T12:54:59;19.48;;;7.65;;
4909;SDS011;2470;49.868;8.660;2023-07-02T12:57:25;17.15;;;7.95;;
4909;SDS011;2470;49.868;8.660;2023-07-02T12:59:54;15.90;;;7.68;;
4909;SDS011;2470;49.868;8.660;2023-07-02T13:02:21;16.33;;;7.50;;
4909;SDS011;2470;49.868;8.660;2023-07-02T13:04:47;12.10;;;6.38;;
4909;SDS011;2470;49.868;8.660;2023-07-02T13:07:13;11.93;;;6.85;;
4909;SDS011;2470;49.868;8.660;2023-07-02T13:09:38;13.32;;;6.97;;
4909;SDS011;2470;49.868;8.660;2023-07-02T13:12:04;12.20;;;6.93;;
4909;SDS011;2470;49.868;8.660;2023-07-02T13:14:30;14.18;;;6.10;;
4909;SDS011;2470;49.868;8.660;2023-07-02T13:16:56;18.85;;;8.75;;
4909;SDS011;2470;49.868;8.660;2023-07-02T13:19:24;13.27;;;7.32;;
4909;SDS011;2470;49.868;8.660;2023-07-02T13:21:49;17.08;;;6.85;;
4909;SDS011;2470;49.868;8.660;2023-07-02T13:24:15;13.65;;;7.10;;
4909;SDS011;2470;49.868;8.660;2023-07-02T13:26:40;15.90;;;6.53;;
4909;SDS011;2470;49.868;8.660;2023-07-02T13:29:06;18.83;;;6.40;;
4909;SDS011;2470;49.868;8.660;2023-07-02T13:31:31;16.80;;;5.68;;
4909;SDS011;2470;49.868;8.660;2023-07-02T13:33:57;13.30;;;6.55;;
4909;SDS011;2470;49.868;8.660;2023-07-02T13:36:23;12.10;;;6.00;;
4909;SDS011;2470;49.868;8.660;2023-07-02T13:38:48;14.55;;;7.07;;
4909;SDS011;2470;49.868;8.660;2023-07-02T13:41:14;11.75;;;7.50;;
4909;SDS011;2470;49.868;8.660;2023-07-02T13:43:40;11.27;;;5.95;;
4909;SDS011;2470;49.868;8.660;2023-07-02T13:46:05;15.13;;;6.57;;
4909;SDS011;2470;49.868;8.660;2023-07-02T13:48:31;10.30;;;6.47;;
4909;SDS011;2470;49.868;8.660;2023-07-02T13:50:56;10.77;;;5.78;;
4909;SDS011;2470;49.868;8.660;2023-07-02T13:53:22;10.57;;;5.57;;
4909;SDS011;2470;49.868;8.660;2023-07-02T13:55:47;10.50;;;6.43;;
4909;SDS011;2470;49.868;8.660;2023-07-02T13:58:13;9.10;;;5.82;;
4909;SDS011;2470;49.868;8.660;2023-07-02T14:00:38;10.88;;;5.65;;
4909;SDS011;2470;49.868;8.660;2023-07-02T14:03:05;10.98;;;6.85;;
4909;SDS011;2470;49.868;8.660;2023-07-02T14:05:31;16.98;;;5.63;;
4909;SDS011;2470;49.868;8.660;2023-07-02T14:07:57;9.57;;;5.45;;
4909;SDS011;2470;49.868;8.660;2023-07-02T14:10:22;9.50;;;5.63;;
4909;SDS011;2470;49.868;8.660;2023-07-02T14:12:48;10.88;;;5.68;;
4909;SDS011;2470;49.868;8.660;2023-07-02T14:15:13;12.45;;;6.25;;
4909;SDS011;2470;49.868;8.660;2023-07-02T14:17:39;10.77;;;5.72;;
4909;SDS011;2470;49.868;8.660;2023-07-02T14:20:05;11.73;;;5.47;;
4909;SDS011;2470;49.868;8.660;2023-07-02T14:22:31;14.85;;;6.47;;
4909;SDS011;2470;49.868;8.660;2023-07-02T14:24:57;9.93;;;5.38;;
4909;SDS011;2470;49.868;8.660;2023-07-02T14:27:23;13.90;;;5.10;;
4909;SDS011;2470;49.868;8.660;2023-07-02T14:29:48;10.40;;;5.70;;
4909;SDS011;2470;49.868;8.660;2023-07-02T14:32:14;11.20;;;5.88;;
4909;SDS011;2470;49.868;8.660;2023-07-02T14:34:40;14.63;;;5.93;;
4909;SDS011;2470;49.868;8.660;2023-07-02T14:37:05;12.50;;;5.90;;
4909;SDS011;2470;49.868;8.660;2023-07-02T14:39:31;10.25;;;6.20;;
4909;SDS011;2470;49.868;8.660;2023-07-02T14:41:57;10.73;;;6.18;;
4909;SDS011;2470;49.868;8.660;2023-07-02T14:44:22;11.60;;;6.55;;
4909;SDS011;2470;49.868;8.660;2023-07-02T14:46:48;12.93;;;6.20;;
4909;SDS011;2470;49.868;8.660;2023-07-02T14:49:14;11.32;;;6.72;;
4909;SDS011;2470;49.868;8.660;2023-07-02T14:51:40;14.60;;;6.18;;
4909;SDS011;2470;49.868;8.660;2023-07-02T14:54:06;13.35;;;5.85;;
4909;SDS011;2470;49.868;8.660;2023-07-02T14:56:32;14.35;;;7.03;;
4909;SDS011;2470;49.868;8.660;2023-07-02T14:59:00;14.55;;;6.95;;
4909;SDS011;2470;49.868;8.660;2023-07-02T15:01:26;11.93;;;6.78;;
4909;SDS011;2470;49.868;8.660;2023-07-02T15:03:52;16.73;;;6.93;;
4909;SDS011;2470;49.868;8.660;2023-07-02T15:06:17;16.95;;;8.38;;
4909;SDS011;2470;49.868;8.660;2023-07-02T15:08:43;10.82;;;6.15;;
4909;SDS011;2470;49.868;8.660;2023-07-02T15:11:10;15.88;;;8.48;;
4909;SDS011;2470;49.868;8.660;2023-07-02T15:13:37;16.48;;;7.47;;